sensor_id;sensor_type;location;lat;lon;timestamp;P1;durP1;ratioP1;P2;durP2;ratioP2
6027;SDS011;3042;43.194;27.646;2023-01-10T00:00:29;58.27;;;54.00;;
6027;SDS011;3042;43.194;27.646;2023-01-10T00:03:01;67.87;;;60.93;;
6027;SDS011;3042;43.194;27.646;2023-01-10T00:05:28;68.60;;;62.87;;
6027;SDS011;3042;43.194;27.646;2023-01-10T00:07:56;69.23;;;61.83;;
6027;SDS011;3042;43.194;27.646;2023-01-10T00:10:23;66.53;;;59.83;;
6027;SDS011;3042;43.194;27.646;2023-01-10T00:12:52;73.60;;;67.60;;
6027;SDS011;3042;43.194;27.646;2023-01-10T00:15:37;76.83;;;70.70;;
6027;SDS011;3042;43.194;27.646;2023-01-10T00:18:04;80.20;;;74.13;;
6027;SDS011;3042;43.194;27.646;2023-01-10T00:20:32;81.80;;;75.23;;
6027;SDS011;3042;43.194;27.646;2023-01-10T00:22:59;79.20;;;73.13;;
6027;SDS011;3042;43.194;27.646;2023-01-10T00:25:27;92.47;;;68.50;;
6027;SDS011;3042;43.194;27.646;2023-01-10T00:27:56;71.50;;;65.63;;
6027;SDS011;3042;43.194;27.646;2023-01-10T00:30:29;81.67;;;72.07;;
6027;SDS011;3042;43.194;27.646;2023-01-10T00:32:57;71.90;;;66.03;;
6027;SDS011;3042;43.194;27.646;2023-01-10T00:35:26;76.60;;;70.80;;
6027;SDS011;3042;43.194;27.646;2023-01-10T00:37:53;75.27;;;69.50;;
6027;SDS011;3042;43.194;27.646;2023-01-10T00:40:25;78.83;;;72.77;;
6027;SDS011;3042;43.194;27.646;2023-01-10T00:42:53;77.23;;;71.90;;
6027;SDS011;3042;43.194;27.646;2023-01-10T00:45:43;82.13;;;76.17;;
6027;SDS011;3042;43.194;27.646;2023-01-10T00:48:11;77.70;;;71.93;;
6027;SDS011;3042;43.194;27.646;2023-01-10T00:50:39;80.73;;;75.13;;
6027;SDS011;3042;43.194;27.646;2023-01-10T00:53:08;88.37;;;81.23;;
6027;SDS011;3042;43.194;27.646;2023-01-10T00:55:35;82.07;;;75.70;;
6027;SDS011;3042;43.194;27.646;2023-01-10T00:58:04;124.47;;;75.67;;
6027;SDS011;3042;43.194;27.646;2023-01-10T01:00:32;82.53;;;76.37;;
6027;SDS011;3042;43.194;27.646;2023-01-10T01:03:01;81.80;;;74.13;;
6027;SDS011;3042;43.194;27.646;2023-01-10T01:05:28;83.53;;;76.93;;
6027;SDS011;3042;43.194;27.646;2023-01-10T01:07:55;84.20;;;77.40;;
6027;SDS011;3042;43.194;27.646;2023-01-10T01:10:23;81.80;;;76.40;;
6027;SDS011;3042;43.194;27.646;2023-01-10T01:12:54;79.80;;;74.20;;
6027;SDS011;3042;43.194;27.646;2023-01-10T01:15:24;82.70;;;76.40;;
6027;SDS011;3042;43.194;27.646;2023-01-10T01:17:52;85.07;;;78.87;;
6027;SDS011;3042;43.194;27.646;2023-01-10T01:20:22;75.87;;;69.33;;
6027;SDS011;3042;43.194;27.646;2023-01-10T01:22:49;91.93;;;73.53;;
6027;SDS011;3042;43.194;27.646;2023-01-10T01:25:16;80.90;;;72.70;;
6027;SDS011;3042;43.194;27.646;2023-01-10T01:27:44;79.60;;;73.40;;
6027;SDS011;3042;43.194;27.646;2023-01-10T01:30:11;96.23;;;78.80;;
6027;SDS011;3042;43.194;27.646;2023-01-10T01:32:39;76.43;;;70.27;;
6027;SDS011;3042;43.194;27.646;2023-01-10T01:35:07;82.77;;;75.83;;
6027;SDS011;3042;43.194;27.646;2023-01-10T01:37:39;80.00;;;72.03;;
6027;SDS011;3042;43.194;27.646;2023-01-10T01:40:08;100.40;;;78.63;;
6027;SDS011;3042;43.194;27.646;2023-01-10T01:42:38;81.60;;;73.87;;
6027;SDS011;3042;43.194;27.646;2023-01-10T01:48:00;88.60;;;82.43;;
6027;SDS011;3042;43.194;27.646;2023-01-10T01:50:34;95.50;;;87.10;;
6027;SDS011;3042;43.194;27.646;2023-01-10T01:53:08;114.00;;;78.93;;
6027;SDS011;3042;43.194;27.646;2023-01-10T01:55:38;90.20;;;82.53;;
6027;SDS011;3042;43.194;27.646;2023-01-10T01:58:09;89.57;;;81.53;;
6027;SDS011;3042;43.194;27.646;2023-01-10T02:00:40;87.87;;;76.80;;
6027;SDS011;3042;43.194;27.646;2023-01-10T02:03:07;88.97;;;82.07;;
6027;SDS011;3042;43.194;27.646;2023-01-10T02:05:35;89.07;;;82.13;;
6027;SDS011;3042;43.194;27.646;2023-01-10T02:08:04;84.23;;;77.33;;
6027;SDS011;3042;43.194;27.646;2023-01-10T02:10:35;97.67;;;87.23;;
6027;SDS011;3042;43.194;27.646;2023-01-10T02:13:06;178.37;;;99.10;;
6027;SDS011;3042;43.194;27.646;2023-01-10T02:15:36;96.30;;;86.70;;
6027;SDS011;3042;43.194;27.646;2023-01-10T02:18:04;184.17;;;95.70;;
6027;SDS011;3042;43.194;27.646;2023-01-10T02:20:35;160.60;;;88.00;;
6027;SDS011;3042;43.194;27.646;2023-01-10T02:23:19;100.00;;;89.40;;
6027;SDS011;3042;43.194;27.646;2023-01-10T02:29:25;95.97;;;86.63;;
6027;SDS011;3042;43.194;27.646;2023-01-10T02:32:20;96.33;;;86.83;;
6027;SDS011;3042;43.194;27.646;2023-01-10T02:34:57;101.43;;;89.77;;
6027;SDS011;3042;43.194;27.646;2023-01-10T02:37:35;93.40;;;84.67;;
6027;SDS011;3042;43.194;27.646;2023-01-10T02:40:12;100.53;;;92.77;;
6027;SDS011;3042;43.194;27.646;2023-01-10T02:42:48;103.13;;;94.20;;
6027;SDS011;3042;43.194;27.646;2023-01-10T02:45:23;112.90;;;96.30;;
6027;SDS011;3042;43.194;27.646;2023-01-10T02:47:56;155.13;;;105.67;;
6027;SDS011;3042;43.194;27.646;2023-01-10T02:50:29;121.03;;;92.07;;
6027;SDS011;3042;43.194;27.646;2023-01-10T02:53:15;110.97;;;98.97;;
6027;SDS011;3042;43.194;27.646;2023-01-10T02:55:51;97.43;;;88.40;;
6027;SDS011;3042;43.194;27.646;2023-01-10T02:58:48;111.80;;;101.00;;
6027;SDS011;3042;43.194;27.646;2023-01-10T03:01:25;113.47;;;103.67;;
6027;SDS011;3042;43.194;27.646;2023-01-10T03:04:02;93.20;;;86.13;;
6027;SDS011;3042;43.194;27.646;2023-01-10T03:06:40;104.47;;;95.90;;
6027;SDS011;3042;43.194;27.646;2023-01-10T03:09:14;103.17;;;94.67;;
6027;SDS011;3042;43.194;27.646;2023-01-10T03:11:46;113.90;;;105.43;;
6027;SDS011;3042;43.194;27.646;2023-01-10T03:14:19;123.07;;;113.57;;
6027;SDS011;3042;43.194;27.646;2023-01-10T03:16:50;106.03;;;97.73;;
6027;SDS011;3042;43.194;27.646;2023-01-10T03:19:23;111.47;;;102.27;;
6027;SDS011;3042;43.194;27.646;2023-01-10T03:21:55;117.07;;;107.07;;
6027;SDS011;3042;43.194;27.646;2023-01-10T03:24:24;113.93;;;102.13;;
6027;SDS011;3042;43.194;27.646;2023-01-10T03:26:55;102.57;;;94.87;;
6027;SDS011;3042;43.194;27.646;2023-01-10T03:29:27;128.07;;;115.17;;
6027;SDS011;3042;43.194;27.646;2023-01-10T03:32:00;134.87;;;114.40;;
6027;SDS011;3042;43.194;27.646;2023-01-10T03:34:32;129.50;;;100.37;;
6027;SDS011;3042;43.194;27.646;2023-01-10T03:37:02;107.57;;;98.90;;
6027;SDS011;3042;43.194;27.646;2023-01-10T03:39:38;105.93;;;97.13;;
6027;SDS011;3042;43.194;27.646;2023-01-10T03:42:14;109.50;;;100.73;;
6027;SDS011;3042;43.194;27.646;2023-01-10T03:44:53;105.17;;;96.57;;
6027;SDS011;3042;43.194;27.646;2023-01-10T03:47:28;101.17;;;93.37;;
6027;SDS011;3042;43.194;27.646;2023-01-10T03:50:02;99.37;;;91.97;;
6027;SDS011;3042;43.194;27.646;2023-01-10T03:52:33;98.93;;;91.93;;
6027;SDS011;3042;43.194;27.646;2023-01-10T03:55:02;111.60;;;102.20;;
6027;SDS011;3042;43.194;27.646;2023-01-10T03:57:31;111.90;;;102.97;;
6027;SDS011;3042;43.194;27.646;2023-01-10T03:59:58;113.77;;;105.50;;
6027;SDS011;3042;43.194;27.646;2023-01-10T04:02:26;121.60;;;112.13;;
6027;SDS011;3042;43.194;27.646;2023-01-10T04:04:54;101.17;;;93.17;;
6027;SDS011;3042;43.194;27.646;2023-01-10T04:07:24;93.90;;;85.50;;
6027;SDS011;3042;43.194;27.646;2023-01-10T04:09:52;95.67;;;87.27;;
6027;SDS011;3042;43.194;27.646;2023-01-10T04:12:21;97.67;;;89.73;;
6027;SDS011;3042;43.194;27.646;2023-01-10T04:14:49;97.43;;;89.43;;
6027;SDS011;3042;43.194;27.646;2023-01-10T04:17:16;102.47;;;94.27;;
6027;SDS011;3042;43.194;27.646;2023-01-10T04:19:43;99.53;;;91.53;;
6027;SDS011;3042;43.194;27.646;2023-01-10T04:22:11;101.17;;;92.80;;
6027;SDS011;3042;43.194;27.646;2023-01-10T04:24:42;111.20;;;101.70;;
6027;SDS011;3042;43.194;27.646;2023-01-10T04:27:11;121.77;;;110.63;;
6027;SDS011;3042;43.194;27.646;2023-01-10T04:29:38;115.63;;;105.47;;
6027;SDS011;3042;43.194;27.646;2023-01-10T04:32:07;112.10;;;101.20;;
6027;SDS011;3042;43.194;27.646;2023-01-10T04:34:34;114.05;;;103.65;;
6027;SDS011;3042;43.194;27.646;2023-01-10T04:37:02;130.10;;;119.23;;
6027;SDS011;3042;43.194;27.646;2023-01-10T04:39:29;110.33;;;100.60;;
6027;SDS011;3042;43.194;27.646;2023-01-10T04:41:58;119.63;;;109.73;;
6027;SDS011;3042;43.194;27.646;2023-01-10T04:44:25;107.20;;;98.23;;
6027;SDS011;3042;43.194;27.646;2023-01-10T04:46:52;113.73;;;104.53;;
6027;SDS011;3042;43.194;27.646;2023-01-10T04:49:19;113.50;;;104.60;;
6027;SDS011;3042;43.194;27.646;2023-01-10T04:51:47;117.73;;;108.50;;
6027;SDS011;3042;43.194;27.646;2023-01-10T04:54:14;119.30;;;109.70;;
6027;SDS011;3042;43.194;27.646;2023-01-10T04:56:44;115.40;;;105.67;;
6027;SDS011;3042;43.194;27.646;2023-01-10T05:15:54;101.37;;;93.63;;
6027;SDS011;3042;43.194;27.646;2023-01-10T05:31:25;93.73;;;85.50;;
6027;SDS011;3042;43.194;27.646;2023-01-10T05:33:52;89.23;;;82.30;;
6027;SDS011;3042;43.194;27.646;2023-01-10T05:36:20;98.03;;;90.83;;
6027;SDS011;3042;43.194;27.646;2023-01-10T05:38:47;89.50;;;81.73;;
6027;SDS011;3042;43.194;27.646;2023-01-10T05:41:15;95.33;;;87.70;;
6027;SDS011;3042;43.194;27.646;2023-01-10T05:43:42;91.33;;;84.40;;
6027;SDS011;3042;43.194;27.646;2023-01-10T05:46:09;97.43;;;89.60;;
6027;SDS011;3042;43.194;27.646;2023-01-10T05:48:38;100.13;;;91.40;;
6027;SDS011;3042;43.194;27.646;2023-01-10T05:51:05;102.30;;;94.10;;
6027;SDS011;3042;43.194;27.646;2023-01-10T05:53:33;106.07;;;97.07;;
6027;SDS011;3042;43.194;27.646;2023-01-10T05:56:00;109.30;;;99.77;;
6027;SDS011;3042;43.194;27.646;2023-01-10T05:58:28;120.67;;;110.87;;
6027;SDS011;3042;43.194;27.646;2023-01-10T06:00:56;122.77;;;113.03;;
6027;SDS011;3042;43.194;27.646;2023-01-10T06:03:23;113.73;;;104.23;;
6027;SDS011;3042;43.194;27.646;2023-01-10T06:05:52;113.73;;;103.77;;
6027;SDS011;3042;43.194;27.646;2023-01-10T06:08:20;111.47;;;102.43;;
6027;SDS011;3042;43.194;27.646;2023-01-10T06:10:47;110.00;;;101.37;;
6027;SDS011;3042;43.194;27.646;2023-01-10T06:13:15;111.70;;;102.20;;
6027;SDS011;3042;43.194;27.646;2023-01-10T06:15:42;100.50;;;92.57;;
6027;SDS011;3042;43.194;27.646;2023-01-10T06:18:09;105.37;;;96.13;;
6027;SDS011;3042;43.194;27.646;2023-01-10T06:20:36;99.60;;;90.80;;
6027;SDS011;3042;43.194;27.646;2023-01-10T06:23:05;97.47;;;89.20;;
6027;SDS011;3042;43.194;27.646;2023-01-10T06:25:33;98.07;;;89.97;;
6027;SDS011;3042;43.194;27.646;2023-01-10T06:28:04;96.97;;;88.13;;
6027;SDS011;3042;43.194;27.646;2023-01-10T06:30:32;93.43;;;85.83;;
6027;SDS011;3042;43.194;27.646;2023-01-10T06:33:00;94.30;;;86.50;;
6027;SDS011;3042;43.194;27.646;2023-01-10T06:35:28;87.97;;;81.00;;
6027;SDS011;3042;43.194;27.646;2023-01-10T06:37:55;88.37;;;81.50;;
6027;SDS011;3042;43.194;27.646;2023-01-10T06:40:24;98.80;;;90.40;;
6027;SDS011;3042;43.194;27.646;2023-01-10T06:42:52;91.03;;;83.50;;
6027;SDS011;3042;43.194;27.646;2023-01-10T06:45:19;95.13;;;86.40;;
6027;SDS011;3042;43.194;27.646;2023-01-10T06:47:46;124.90;;;107.33;;
6027;SDS011;3042;43.194;27.646;2023-01-10T06:50:13;89.87;;;82.30;;
6027;SDS011;3042;43.194;27.646;2023-01-10T06:52:41;95.63;;;86.17;;
6027;SDS011;3042;43.194;27.646;2023-01-10T06:55:08;192.00;;;140.20;;
6027;SDS011;3042;43.194;27.646;2023-01-10T06:57:37;237.70;;;181.30;;
6027;SDS011;3042;43.194;27.646;2023-01-10T07:00:05;183.37;;;155.33;;
6027;SDS011;3042;43.194;27.646;2023-01-10T07:02:36;99.83;;;90.70;;
6027;SDS011;3042;43.194;27.646;2023-01-10T07:05:03;90.70;;;82.90;;
6027;SDS011;3042;43.194;27.646;2023-01-10T07:07:31;88.27;;;81.27;;
6027;SDS011;3042;43.194;27.646;2023-01-10T07:09:58;95.03;;;87.43;;
6027;SDS011;3042;43.194;27.646;2023-01-10T07:12:25;85.87;;;78.67;;
6027;SDS011;3042;43.194;27.646;2023-01-10T07:14:54;81.20;;;74.87;;
6027;SDS011;3042;43.194;27.646;2023-01-10T07:17:21;82.80;;;76.57;;
6027;SDS011;3042;43.194;27.646;2023-01-10T07:19:48;82.23;;;75.90;;
6027;SDS011;3042;43.194;27.646;2023-01-10T07:22:15;78.87;;;72.50;;
6027;SDS011;3042;43.194;27.646;2023-01-10T07:24:43;76.57;;;69.80;;
6027;SDS011;3042;43.194;27.646;2023-01-10T07:27:10;98.37;;;88.20;;
6027;SDS011;3042;43.194;27.646;2023-01-10T07:29:37;100.33;;;90.20;;
6027;SDS011;3042;43.194;27.646;2023-01-10T07:32:06;81.23;;;74.63;;
6027;SDS011;3042;43.194;27.646;2023-01-10T07:34:33;110.83;;;99.60;;
6027;SDS011;3042;43.194;27.646;2023-01-10T07:37:00;219.90;;;161.83;;
6027;SDS011;3042;43.194;27.646;2023-01-10T07:39:28;201.47;;;151.60;;
6027;SDS011;3042;43.194;27.646;2023-01-10T07:41:55;186.63;;;156.67;;
6027;SDS011;3042;43.194;27.646;2023-01-10T07:44:22;154.07;;;120.77;;
6027;SDS011;3042;43.194;27.646;2023-01-10T07:46:49;137.97;;;115.47;;
6027;SDS011;3042;43.194;27.646;2023-01-10T07:49:18;140.48;;;119.10;;
6027;SDS011;3042;43.194;27.646;2023-01-10T07:51:45;144.63;;;123.30;;
6027;SDS011;3042;43.194;27.646;2023-01-10T07:54:12;93.13;;;83.77;;
6027;SDS011;3042;43.194;27.646;2023-01-10T07:56:39;121.63;;;105.83;;
6027;SDS011;3042;43.194;27.646;2023-01-10T07:59:07;260.47;;;184.97;;
6027;SDS011;3042;43.194;27.646;2023-01-10T08:01:34;174.33;;;133.73;;
6027;SDS011;3042;43.194;27.646;2023-01-10T08:04:01;83.37;;;75.00;;
6027;SDS011;3042;43.194;27.646;2023-01-10T08:06:30;143.55;;;120.47;;
6027;SDS011;3042;43.194;27.646;2023-01-10T08:08:57;80.40;;;72.30;;
6027;SDS011;3042;43.194;27.646;2023-01-10T08:11:24;68.93;;;63.47;;
6027;SDS011;3042;43.194;27.646;2023-01-10T08:13:51;73.80;;;65.67;;
6027;SDS011;3042;43.194;27.646;2023-01-10T08:16:19;72.67;;;65.57;;
6027;SDS011;3042;43.194;27.646;2023-01-10T08:18:46;70.87;;;64.70;;
6027;SDS011;3042;43.194;27.646;2023-01-10T08:21:13;80.07;;;64.70;;
6027;SDS011;3042;43.194;27.646;2023-01-10T08:23:42;71.60;;;66.40;;
6027;SDS011;3042;43.194;27.646;2023-01-10T08:26:09;68.07;;;62.77;;
6027;SDS011;3042;43.194;27.646;2023-01-10T08:28:36;69.63;;;63.90;;
6027;SDS011;3042;43.194;27.646;2023-01-10T08:31:04;64.30;;;58.80;;
6027;SDS011;3042;43.194;27.646;2023-01-10T08:33:32;62.67;;;57.27;;
6027;SDS011;3042;43.194;27.646;2023-01-10T08:35:59;69.17;;;63.87;;
6027;SDS011;3042;43.194;27.646;2023-01-10T08:38:26;66.03;;;60.60;;
6027;SDS011;3042;43.194;27.646;2023-01-10T08:40:56;71.20;;;64.20;;
6027;SDS011;3042;43.194;27.646;2023-01-10T08:43:23;65.23;;;59.57;;
6027;SDS011;3042;43.194;27.646;2023-01-10T08:45:50;74.23;;;60.97;;
6027;SDS011;3042;43.194;27.646;2023-01-10T08:48:18;108.83;;;59.63;;
6027;SDS011;3042;43.194;27.646;2023-01-10T08:50:45;61.13;;;53.80;;
6027;SDS011;3042;43.194;27.646;2023-01-10T08:53:12;57.43;;;51.80;;
6027;SDS011;3042;43.194;27.646;2023-01-10T08:55:39;51.40;;;46.83;;
6027;SDS011;3042;43.194;27.646;2023-01-10T08:58:08;51.53;;;47.30;;
6027;SDS011;3042;43.194;27.646;2023-01-10T09:00:36;54.23;;;48.70;;
6027;SDS011;3042;43.194;27.646;2023-01-10T09:03:04;48.43;;;44.50;;
6027;SDS011;3042;43.194;27.646;2023-01-10T09:05:32;52.40;;;47.83;;
6027;SDS011;3042;43.194;27.646;2023-01-10T09:08:00;46.60;;;42.40;;
6027;SDS011;3042;43.194;27.646;2023-01-10T09:10:28;46.17;;;42.13;;
6027;SDS011;3042;43.194;27.646;2023-01-10T09:12:56;130.83;;;43.73;;
6027;SDS011;3042;43.194;27.646;2023-01-10T09:15:28;39.63;;;35.93;;
6027;SDS011;3042;43.194;27.646;2023-01-10T09:17:57;41.97;;;37.77;;
6027;SDS011;3042;43.194;27.646;2023-01-10T09:20:26;38.57;;;35.37;;
6027;SDS011;3042;43.194;27.646;2023-01-10T09:22:55;39.10;;;36.13;;
6027;SDS011;3042;43.194;27.646;2023-01-10T09:25:22;40.53;;;34.20;;
6027;SDS011;3042;43.194;27.646;2023-01-10T09:27:54;37.20;;;34.20;;
6027;SDS011;3042;43.194;27.646;2023-01-10T09:30:22;40.33;;;36.60;;
6027;SDS011;3042;43.194;27.646;2023-01-10T09:32:51;40.90;;;36.83;;
6027;SDS011;3042;43.194;27.646;2023-01-10T09:35:19;36.83;;;33.30;;
6027;SDS011;3042;43.194;27.646;2023-01-10T09:37:46;50.73;;;38.27;;
6027;SDS011;3042;43.194;27.646;2023-01-10T09:40:13;40.33;;;32.37;;
6027;SDS011;3042;43.194;27.646;2023-01-10T09:42:47;36.67;;;33.40;;
6027;SDS011;3042;43.194;27.646;2023-01-10T09:45:24;84.23;;;36.50;;
6027;SDS011;3042;43.194;27.646;2023-01-10T09:48:00;72.70;;;36.50;;
6027;SDS011;3042;43.194;27.646;2023-01-10T09:50:34;73.30;;;35.50;;
6027;SDS011;3042;43.194;27.646;2023-01-10T09:53:10;73.50;;;38.40;;
6027;SDS011;3042;43.194;27.646;2023-01-10T09:55:41;54.93;;;37.63;;
6027;SDS011;3042;43.194;27.646;2023-01-10T09:58:12;37.77;;;34.37;;
6027;SDS011;3042;43.194;27.646;2023-01-10T10:00:41;36.50;;;31.10;;
6027;SDS011;3042;43.194;27.646;2023-01-10T10:03:20;58.90;;;38.10;;
6027;SDS011;3042;43.194;27.646;2023-01-10T10:05:53;40.50;;;36.07;;
6027;SDS011;3042;43.194;27.646;2023-01-10T10:08:20;37.73;;;34.57;;
6027;SDS011;3042;43.194;27.646;2023-01-10T10:10:50;35.40;;;32.33;;
6027;SDS011;3042;43.194;27.646;2023-01-10T10:13:30;38.73;;;35.00;;
6027;SDS011;3042;43.194;27.646;2023-01-10T10:16:08;35.80;;;31.63;;
6027;SDS011;3042;43.194;27.646;2023-01-10T10:18:47;34.87;;;31.77;;
6027;SDS011;3042;43.194;27.646;2023-01-10T10:21:22;38.33;;;30.80;;
6027;SDS011;3042;43.194;27.646;2023-01-10T10:23:59;37.30;;;33.73;;
6027;SDS011;3042;43.194;27.646;2023-01-10T10:26:40;35.43;;;31.27;;
6027;SDS011;3042;43.194;27.646;2023-01-10T10:29:24;44.33;;;32.10;;
6027;SDS011;3042;43.194;27.646;2023-01-10T10:32:22;33.13;;;30.03;;
6027;SDS011;3042;43.194;27.646;2023-01-10T10:35:14;34.57;;;31.10;;
6027;SDS011;3042;43.194;27.646;2023-01-10T10:37:50;34.10;;;31.40;;
6027;SDS011;3042;43.194;27.646;2023-01-10T10:40:20;43.90;;;35.23;;
6027;SDS011;3042;43.194;27.646;2023-01-10T10:42:51;92.13;;;34.73;;
6027;SDS011;3042;43.194;27.646;2023-01-10T10:45:21;43.00;;;32.17;;
6027;SDS011;3042;43.194;27.646;2023-01-10T10:47:54;38.03;;;33.90;;
6027;SDS011;3042;43.194;27.646;2023-01-10T10:50:29;44.03;;;34.20;;
6027;SDS011;3042;43.194;27.646;2023-01-10T10:52:59;35.80;;;32.60;;
6027;SDS011;3042;43.194;27.646;2023-01-10T10:55:28;36.60;;;32.40;;
6027;SDS011;3042;43.194;27.646;2023-01-10T10:58:00;52.57;;;32.87;;
6027;SDS011;3042;43.194;27.646;2023-01-10T11:00:29;68.63;;;33.80;;
6027;SDS011;3042;43.194;27.646;2023-01-10T11:02:57;32.80;;;29.43;;
6027;SDS011;3042;43.194;27.646;2023-01-10T11:05:30;35.43;;;32.63;;
6027;SDS011;3042;43.194;27.646;2023-01-10T11:08:02;35.10;;;31.70;;
6027;SDS011;3042;43.194;27.646;2023-01-10T11:10:34;44.37;;;30.00;;
6027;SDS011;3042;43.194;27.646;2023-01-10T11:13:04;33.50;;;30.17;;
6027;SDS011;3042;43.194;27.646;2023-01-10T11:15:40;33.17;;;30.27;;
6027;SDS011;3042;43.194;27.646;2023-01-10T11:18:13;32.67;;;29.20;;
6027;SDS011;3042;43.194;27.646;2023-01-10T11:20:50;38.53;;;28.53;;
6027;SDS011;3042;43.194;27.646;2023-01-10T11:23:23;31.47;;;28.83;;
6027;SDS011;3042;43.194;27.646;2023-01-10T11:25:55;34.37;;;30.40;;
6027;SDS011;3042;43.194;27.646;2023-01-10T11:28:24;34.27;;;30.73;;
6027;SDS011;3042;43.194;27.646;2023-01-10T11:30:55;33.13;;;29.70;;
6027;SDS011;3042;43.194;27.646;2023-01-10T11:33:25;55.93;;;33.87;;
6027;SDS011;3042;43.194;27.646;2023-01-10T11:35:57;34.03;;;30.73;;
6027;SDS011;3042;43.194;27.646;2023-01-10T11:38:27;54.33;;;33.80;;
6027;SDS011;3042;43.194;27.646;2023-01-10T11:40:56;35.63;;;32.70;;
6027;SDS011;3042;43.194;27.646;2023-01-10T11:43:25;35.43;;;32.53;;
6027;SDS011;3042;43.194;27.646;2023-01-10T11:45:55;38.63;;;35.70;;
6027;SDS011;3042;43.194;27.646;2023-01-10T11:48:26;40.80;;;37.17;;
6027;SDS011;3042;43.194;27.646;2023-01-10T11:51:13;47.70;;;43.40;;
6027;SDS011;3042;43.194;27.646;2023-01-10T11:53:44;42.33;;;38.33;;
6027;SDS011;3042;43.194;27.646;2023-01-10T11:56:13;41.57;;;38.13;;
6027;SDS011;3042;43.194;27.646;2023-01-10T11:58:50;39.70;;;36.73;;
6027;SDS011;3042;43.194;27.646;2023-01-10T12:01:25;37.43;;;34.43;;
6027;SDS011;3042;43.194;27.646;2023-01-10T12:03:54;42.00;;;38.93;;
6027;SDS011;3042;43.194;27.646;2023-01-10T12:06:24;41.60;;;38.47;;
6027;SDS011;3042;43.194;27.646;2023-01-10T12:08:53;45.27;;;41.60;;
6027;SDS011;3042;43.194;27.646;2023-01-10T12:11:23;45.93;;;42.50;;
6027;SDS011;3042;43.194;27.646;2023-01-10T12:13:55;44.70;;;40.70;;
6027;SDS011;3042;43.194;27.646;2023-01-10T12:16:24;47.57;;;43.37;;
6027;SDS011;3042;43.194;27.646;2023-01-10T12:18:53;42.23;;;38.40;;
6027;SDS011;3042;43.194;27.646;2023-01-10T12:21:27;50.50;;;46.47;;
6027;SDS011;3042;43.194;27.646;2023-01-10T12:23:59;43.53;;;39.57;;
6027;SDS011;3042;43.194;27.646;2023-01-10T12:26:30;47.53;;;42.87;;
6027;SDS011;3042;43.194;27.646;2023-01-10T12:28:59;49.27;;;45.60;;
6027;SDS011;3042;43.194;27.646;2023-01-10T12:31:33;55.40;;;50.65;;
6027;SDS011;3042;43.194;27.646;2023-01-10T12:34:04;73.10;;;68.07;;
6027;SDS011;3042;43.194;27.646;2023-01-10T12:36:40;89.70;;;82.70;;
6027;SDS011;3042;43.194;27.646;2023-01-10T12:39:14;96.47;;;89.87;;
6027;SDS011;3042;43.194;27.646;2023-01-10T12:41:56;78.60;;;72.83;;
6027;SDS011;3042;43.194;27.646;2023-01-10T12:44:52;72.83;;;67.80;;
6027;SDS011;3042;43.194;27.646;2023-01-10T12:47:27;63.83;;;59.00;;
6027;SDS011;3042;43.194;27.646;2023-01-10T12:49:59;62.30;;;57.60;;
6027;SDS011;3042;43.194;27.646;2023-01-10T12:52:36;59.97;;;56.27;;
6027;SDS011;3042;43.194;27.646;2023-01-10T12:55:11;65.40;;;60.50;;
6027;SDS011;3042;43.194;27.646;2023-01-10T12:57:40;64.77;;;59.87;;
6027;SDS011;3042;43.194;27.646;2023-01-10T13:00:14;66.53;;;61.10;;
6027;SDS011;3042;43.194;27.646;2023-01-10T13:02:48;87.10;;;80.87;;
6027;SDS011;3042;43.194;27.646;2023-01-10T13:05:20;77.60;;;71.77;;
6027;SDS011;3042;43.194;27.646;2023-01-10T13:07:51;76.97;;;71.43;;
6027;SDS011;3042;43.194;27.646;2023-01-10T13:10:22;64.80;;;59.33;;
6027;SDS011;3042;43.194;27.646;2023-01-10T13:12:52;68.10;;;63.07;;
6027;SDS011;3042;43.194;27.646;2023-01-10T13:15:26;84.07;;;77.83;;
6027;SDS011;3042;43.194;27.646;2023-01-10T13:17:57;97.97;;;90.20;;
6027;SDS011;3042;43.194;27.646;2023-01-10T13:20:28;87.17;;;81.13;;
6027;SDS011;3042;43.194;27.646;2023-01-10T13:23:11;78.33;;;73.27;;
6027;SDS011;3042;43.194;27.646;2023-01-10T13:25:52;69.70;;;64.50;;
6027;SDS011;3042;43.194;27.646;2023-01-10T13:28:21;69.13;;;64.43;;
6027;SDS011;3042;43.194;27.646;2023-01-10T13:30:51;69.30;;;63.77;;
6027;SDS011;3042;43.194;27.646;2023-01-10T13:33:21;79.33;;;73.00;;
6027;SDS011;3042;43.194;27.646;2023-01-10T13:35:50;67.93;;;62.80;;
6027;SDS011;3042;43.194;27.646;2023-01-10T13:38:22;92.17;;;84.33;;
6027;SDS011;3042;43.194;27.646;2023-01-10T13:40:57;92.53;;;84.93;;
6027;SDS011;3042;43.194;27.646;2023-01-10T13:43:39;73.10;;;68.20;;
6027;SDS011;3042;43.194;27.646;2023-01-10T13:46:35;68.40;;;63.30;;
6027;SDS011;3042;43.194;27.646;2023-01-10T13:55:28;65.43;;;61.03;;
6027;SDS011;3042;43.194;27.646;2023-01-10T13:57:59;67.60;;;61.80;;
6027;SDS011;3042;43.194;27.646;2023-01-10T14:00:44;60.37;;;55.93;;
6027;SDS011;3042;43.194;27.646;2023-01-10T14:06:19;61.53;;;56.47;;
6027;SDS011;3042;43.194;27.646;2023-01-10T14:09:05;64.20;;;59.70;;
6027;SDS011;3042;43.194;27.646;2023-01-10T14:12:03;60.43;;;55.63;;
6027;SDS011;3042;43.194;27.646;2023-01-10T14:14:35;62.57;;;57.23;;
6027;SDS011;3042;43.194;27.646;2023-01-10T14:17:09;66.53;;;61.40;;
6027;SDS011;3042;43.194;27.646;2023-01-10T14:19:40;63.37;;;59.20;;
6027;SDS011;3042;43.194;27.646;2023-01-10T14:22:27;63.63;;;57.47;;
6027;SDS011;3042;43.194;27.646;2023-01-10T14:24:57;90.17;;;84.67;;
6027;SDS011;3042;43.194;27.646;2023-01-10T14:27:29;80.00;;;74.60;;
6027;SDS011;3042;43.194;27.646;2023-01-10T14:30:03;74.53;;;69.33;;
6027;SDS011;3042;43.194;27.646;2023-01-10T14:32:33;84.53;;;78.23;;
6027;SDS011;3042;43.194;27.646;2023-01-10T14:35:04;71.70;;;65.57;;
6027;SDS011;3042;43.194;27.646;2023-01-10T14:37:36;71.57;;;66.67;;
6027;SDS011;3042;43.194;27.646;2023-01-10T14:40:17;77.73;;;71.30;;
6027;SDS011;3042;43.194;27.646;2023-01-10T14:42:51;77.43;;;72.03;;
6027;SDS011;3042;43.194;27.646;2023-01-10T14:45:29;71.27;;;66.43;;
6027;SDS011;3042;43.194;27.646;2023-01-10T14:50:51;76.93;;;71.33;;
6027;SDS011;3042;43.194;27.646;2023-01-10T14:53:26;78.83;;;72.97;;
6027;SDS011;3042;43.194;27.646;2023-01-10T14:55:55;91.00;;;84.10;;
6027;SDS011;3042;43.194;27.646;2023-01-10T14:58:24;97.50;;;90.20;;
6027;SDS011;3042;43.194;27.646;2023-01-10T15:00:52;98.03;;;90.90;;
6027;SDS011;3042;43.194;27.646;2023-01-10T15:03:21;113.13;;;104.70;;
6027;SDS011;3042;43.194;27.646;2023-01-10T15:05:50;115.77;;;107.50;;
6027;SDS011;3042;43.194;27.646;2023-01-10T15:08:20;121.37;;;113.20;;
6027;SDS011;3042;43.194;27.646;2023-01-10T15:10:50;123.80;;;115.33;;
6027;SDS011;3042;43.194;27.646;2023-01-10T15:13:20;125.10;;;116.50;;
6027;SDS011;3042;43.194;27.646;2023-01-10T15:15:52;123.27;;;114.57;;
6027;SDS011;3042;43.194;27.646;2023-01-10T15:18:29;119.13;;;109.77;;
6027;SDS011;3042;43.194;27.646;2023-01-10T15:21:02;103.57;;;96.03;;
6027;SDS011;3042;43.194;27.646;2023-01-10T15:23:34;114.30;;;105.87;;
6027;SDS011;3042;43.194;27.646;2023-01-10T15:26:04;112.17;;;103.60;;
6027;SDS011;3042;43.194;27.646;2023-01-10T15:28:34;148.03;;;136.80;;
6027;SDS011;3042;43.194;27.646;2023-01-10T15:31:04;144.43;;;135.90;;
6027;SDS011;3042;43.194;27.646;2023-01-10T15:33:35;138.47;;;130.10;;
6027;SDS011;3042;43.194;27.646;2023-01-10T15:36:04;136.23;;;127.73;;
6027;SDS011;3042;43.194;27.646;2023-01-10T15:38:34;130.73;;;123.37;;